Time;durP1;ratioP1;P1;durP2;ratioP2;P2;SDS_P1;SDS_P2;PMS_P1;PMS_P2;Temp;Humidity;BMP_temperature;BMP_pressure;BME280_temperature;BME280_humidity;BME280_pressure;Samples;Min_cycle;Max_cycle;Signal;HPM_P1;HPM_P2
2022/09/06 00:04:55;;;;;;;1.15;0.90;;;19.00;60.00;21.10;94160.00;;;;10472997;28;45231;-61
2022/09/06 00:10:15;;;;;;;1.25;0.65;;;19.00;60.10;21.10;94150.00;;;;10473067;28;45234;-61
2022/09/06 00:15:37;;;;;;;0.70;0.70;;;19.00;60.10;21.10;94162.00;;;;10470782;28;45151;-61
2022/09/06 00:20:59;;;;;;;1.65;0.90;;;19.00;60.20;21.10;94169.00;;;;10430874;28;45185;-61
2022/09/06 00:26:20;;;;;;;1.27;0.85;;;19.00;60.10;21.10;94158.00;;;;10443609;28;45844;-61
2022/09/06 00:31:41;;;;;;;1.02;0.70;;;19.00;60.10;21.10;94163.00;;;;10451721;28;45190;-61
2022/09/06 00:37:03;;;;;;;0.90;0.82;;;19.00;60.10;21.10;94167.00;;;;10428353;28;45189;-62
2022/09/06 00:42:23;;;;;;;1.10;0.90;;;18.90;60.10;21.00;94172.00;;;;10453108;28;45246;-61
2022/09/06 00:47:44;;;;;;;1.00;0.80;;;18.90;60.20;21.10;94171.00;;;;10455185;28;45577;-61
2022/09/06 00:53:06;;;;;;;1.85;0.95;;;18.90;60.10;21.10;94176.00;;;;10429812;28;45348;-61
2022/09/06 00:58:28;;;;;;;1.30;0.80;;;18.90;60.10;21.10;94183.00;;;;10428589;28;45511;-61
2022/09/06 01:03:49;;;;;;;1.02;0.73;;;19.00;60.10;21.10;94177.00;;;;10424794;28;45474;-61
2022/09/06 01:09:26;;;;;;;1.10;0.77;;;19.00;60.10;21.10;94169.00;;;;10448130;28;45723;-61
2022/09/06 01:14:54;;;;;;;;;;;19.00;60.10;21.10;94170.00;;;;10429646;28;45225;-61
2022/09/06 01:20:40;;;;;;;1.08;0.80;;;19.00;60.20;21.00;94176.00;;;;10429222;28;45181;-61
2022/09/06 01:26:27;;;;;;;0.93;0.80;;;18.90;60.10;21.00;94159.00;;;;10428327;28;45130;-60
2022/09/06 01:31:55;;;;;;;1.83;0.93;;;18.90;60.20;21.10;94157.00;;;;10457458;28;45492;-60
2022/09/06 01:37:20;;;;;;;1.25;0.90;;;18.90;60.10;21.00;94151.00;;;;10469709;28;45888;-61
2022/09/06 01:42:42;;;;;;;0.98;0.60;;;18.90;60.20;21.00;94166.00;;;;10469722;28;45679;-61
2022/09/06 01:48:15;;;;;;;1.08;0.90;;;18.90;60.20;21.00;94171.00;;;;10449986;28;45182;-61
2022/09/06 01:54:01;;;;;;;1.30;0.90;;;18.90;60.20;21.00;94178.00;;;;10428377;28;45778;-61
2022/09/06 01:59:39;;;;;;;1.00;0.80;;;18.90;60.30;21.00;94164.00;;;;10458080;28;45200;-60
2022/09/06 02:05:08;;;;;;;1.50;0.77;;;18.90;60.30;21.00;94176.00;;;;10469207;28;45798;-60
2022/09/06 02:10:37;;;;;;;1.15;0.90;;;18.90;60.30;21.00;94173.00;;;;10452092;28;45168;-61
2022/09/06 02:16:02;;;;;;;1.05;0.80;;;18.90;60.30;21.00;94167.00;;;;10428053;28;45298;-61
2022/09/06 02:21:34;;;;;;;1.10;0.80;;;18.90;60.30;21.00;94173.00;;;;10440148;28;45850;-61
2022/09/06 02:26:55;;;;;;;0.82;0.75;;;18.90;60.30;21.00;94180.00;;;;10456233;28;45193;-61
2022/09/06 02:32:20;;;;;;;1.08;0.80;;;18.90;60.30;21.00;94185.00;;;;10468437;28;45777;-60
2022/09/06 02:37:43;;;;;;;0.98;0.73;;;18.90;60.30;21.00;94179.00;;;;10467786;28;45146;-61
2022/09/06 02:43:03;;;;;;;1.20;0.68;;;18.90;60.30;21.00;94181.00;;;;10455836;28;45220;-61
2022/09/06 02:48:24;;;;;;;1.80;0.82;;;18.90;60.30;21.00;94167.00;;;;10435374;28;45683;-61
2022/09/06 02:53:46;;;;;;;0.85;0.70;;;18.90;60.30;21.00;94150.00;;;;10436202;28;45849;-61
2022/09/06 02:59:07;;;;;;;2.00;0.90;;;18.90;60.20;21.00;94146.00;;;;10427719;28;45425;-61
2022/09/06 03:04:27;;;;;;;0.95;0.80;;;18.90;60.20;21.00;94150.00;;;;10433560;28;45201;-60
2022/09/06 03:09:50;;;;;;;0.82;0.70;;;18.90;60.20;21.00;94145.00;;;;10457192;28;45703;-61
2022/09/06 03:15:12;;;;;;;1.30;1.00;;;18.90;60.10;21.00;94147.00;;;;10432750;28;45139;-61
2022/09/06 03:20:33;;;;;;;1.88;0.80;;;18.90;60.10;21.00;94142.00;;;;10432125;28;45250;-61
2022/09/06 03:25:55;;;;;;;1.27;0.90;;;18.90;60.10;21.00;94133.00;;;;10432885;28;45687;-61
2022/09/06 03:31:16;;;;;;;1.08;0.70;;;18.90;60.10;21.00;94141.00;;;;10432391;28;45212;-60
2022/09/06 03:36:36;;;;;;;0.98;0.88;;;18.90;60.10;21.00;94139.00;;;;10460640;28;45222;-61
2022/09/06 03:41:58;;;;;;;1.05;0.90;;;18.90;60.10;21.00;94151.00;;;;10453995;28;45152;-61
2022/09/06 03:47:19;;;;;;;1.33;0.88;;;18.90;60.10;21.00;94138.00;;;;10434168;28;45145;-61
2022/09/06 03:52:39;;;;;;;1.48;0.90;;;18.90;60.20;21.00;94147.00;;;;10432669;28;45259;-60
2022/09/06 03:58:01;;;;;;;0.82;0.70;;;18.90;60.10;21.00;94139.00;;;;10431362;28;45590;-60
2022/09/06 04:03:22;;;;;;;1.85;0.90;;;18.90;60.20;21.00;94145.00;;;;10430880;28;45758;-60
2022/09/06 04:08:42;;;;;;;1.23;0.93;;;18.90;60.20;21.00;94135.00;;;;10455903;28;45164;-60
2022/09/06 04:14:04;;;;;;;1.25;0.90;;;18.90;60.10;21.00;94148.00;;;;10430147;28;45779;-60
2022/09/06 04:19:24;;;;;;;1.23;0.75;;;18.90;60.20;21.00;94149.00;;;;10431015;28;45417;-60
2022/09/06 04:24:45;;;;;;;2.42;0.80;;;18.90;60.90;21.00;94155.00;;;;10429853;28;45419;-61
2022/09/06 04:30:09;;;;;;;1.85;0.80;;;18.90;60.20;21.00;94149.00;;;;10460152;28;45479;-60
2022/09/06 04:35:30;;;;;;;1.63;0.88;;;18.90;60.30;21.00;94147.00;;;;10471940;28;45330;-61
2022/09/06 04:40:51;;;;;;;1.50;0.70;;;18.90;60.30;21.00;94151.00;;;;10460671;28;45156;-61
2022/09/06 04:46:19;;;;;;;1.05;0.90;;;18.90;60.40;21.00;94154.00;;;;10431709;28;45687;-61
2022/09/06 04:51:40;;;;;;;0.65;0.57;;;18.90;60.40;21.00;94158.00;;;;10429894;28;45141;-61
2022/09/06 04:57:01;;;;;;;1.08;0.80;;;18.90;60.40;21.00;94149.00;;;;10429852;28;45898;-61
2022/09/06 05:02:23;;;;;;;1.70;0.80;;;18.90;60.40;21.00;94161.00;;;;10429318;28;45746;-60
2022/09/06 05:07:43;;;;;;;1.25;0.80;;;18.90;60.50;21.00;94149.00;;;;10436174;28;45175;-61
2022/09/06 05:13:04;;;;;;;1.00;0.73;;;18.90;60.50;21.00;94170.00;;;;10434663;28;45192;-61
2022/09/06 05:18:26;;;;;;;1.00;0.70;;;18.80;60.40;21.00;94180.00;;;;10429975;28;45258;-61
2022/09/06 05:23:46;;;;;;;1.73;1.20;;;18.90;60.50;21.00;94190.00;;;;10457026;28;45770;-61
2022/09/06 05:29:07;;;;;;;2.67;1.10;;;18.80;60.40;21.00;94194.00;;;;10470439;28;45170;-61
2022/09/06 05:34:28;;;;;;;3.38;0.80;;;18.90;60.50;21.00;94179.00;;;;10431633;28;45785;-61
2022/09/06 05:39:49;;;;;;;1.40;0.77;;;18.90;60.50;21.00;94193.00;;;;10455344;28;45137;-61
2022/09/06 05:45:10;;;;;;;0.85;0.65;;;18.90;60.50;21.00;94181.00;;;;10446719;28;45203;-60
2022/09/06 05:50:32;;;;;;;1.10;0.75;;;18.80;60.50;20.90;94178.00;;;;10433721;28;45714;-60
2022/09/06 05:55:53;;;;;;;0.73;0.73;;;18.80;60.50;21.00;94188.00;;;;10428239;28;46037;-61
2022/09/06 06:01:21;;;;;;;1.55;0.80;;;18.90;60.50;21.00;94193.00;;;;10427327;28;45160;-60
2022/09/06 06:06:43;;;;;;;1.73;0.98;;;18.90;60.60;21.00;94198.00;;;;10431312;28;45241;-61
2022/09/06 06:12:04;;;;;;;1.70;0.80;;;18.90;60.50;21.00;94199.00;;;;10455049;28;46172;-61
2022/09/06 06:17:26;;;;;;;1.05;0.60;;;18.90;60.50;21.00;94189.00;;;;10470361;28;45210;-60
2022/09/06 06:22:48;;;;;;;1.63;0.80;;;18.90;60.50;21.00;94198.00;;;;10468501;28;45286;-60
2022/09/06 06:28:08;;;;;;;1.77;0.88;;;18.90;60.50;21.00;94193.00;;;;10469534;28;45467;-61
2022/09/06 06:33:29;;;;;;;1.88;1.10;;;18.90;60.60;21.00;94182.00;;;;10468375;28;45229;-61
2022/09/06 06:38:53;;;;;;;1.27;0.93;;;18.90;60.50;21.00;94194.00;;;;10475594;28;45337;-60
2022/09/06 06:44:14;;;;;;;2.42;0.90;;;18.90;60.50;21.00;94201.00;;;;10435908;28;45202;-61
2022/09/06 06:49:35;;;;;;;2.15;0.80;;;18.90;60.50;21.00;94195.00;;;;10434491;28;45857;-61
2022/09/06 06:54:56;;;;;;;1.98;0.80;;;18.90;60.50;21.00;94212.00;;;;10434017;28;45900;-60
2022/09/06 07:00:17;;;;;;;1.52;0.88;;;18.90;60.50;21.00;94203.00;;;;10433958;28;45372;-61
2022/09/06 07:05:42;;;;;;;2.22;0.88;;;18.90;60.50;21.00;94206.00;;;;10433307;28;45250;-61
2022/09/06 07:11:05;;;;;;;2.15;0.90;;;18.90;60.60;21.00;94206.00;;;;10449665;28;45423;-61
2022/09/06 07:16:27;;;;;;;1.15;0.68;;;18.90;60.60;21.00;94210.00;;;;10432675;28;45795;-59
2022/09/06 07:21:47;;;;;;;2.55;0.70;;;18.90;60.40;21.00;94205.00;;;;10432906;28;45811;-60
2022/09/06 07:27:09;;;;;;;2.53;0.90;;;18.90;60.50;21.00;94195.00;;;;10433023;28;45410;-59
2022/09/06 07:32:29;;;;;;;1.55;0.80;;;18.90;60.50;21.10;94203.00;;;;10432591;28;45753;-59
2022/09/06 07:37:55;;;;;;;1.38;0.80;;;18.90;60.40;21.00;94198.00;;;;10445961;28;45223;-60
2022/09/06 07:43:17;;;;;;;1.20;0.90;;;18.90;60.40;21.10;94224.00;;;;10437453;28;45795;-60
2022/09/06 07:48:40;;;;;;;1.50;0.90;;;19.00;60.40;21.10;94223.00;;;;10452292;28;44958;-61
2022/09/06 07:54:00;;;;;;;2.60;0.90;;;19.00;60.40;21.10;94226.00;;;;10433086;28;45522;-60
2022/09/06 07:59:22;;;;;;;3.72;0.90;;;19.00;60.40;21.10;94235.00;;;;10446636;28;45149;-60
2022/09/06 08:04:43;;;;;;;2.40;1.00;;;19.00;60.40;21.00;94228.00;;;;10445891;28;45676;-60
2022/09/06 08:10:05;;;;;;;1.63;0.77;;;18.90;61.20;21.10;94244.00;;;;10455068;28;45747;-60
2022/09/06 08:15:28;;;;;;;1.27;0.80;;;18.90;60.30;21.10;94246.00;;;;10460049;28;45225;-61
2022/09/06 08:20:49;;;;;;;1.60;0.82;;;18.90;60.40;21.00;94231.00;;;;10473277;28;45194;-61
2022/09/06 08:26:10;;;;;;;1.58;0.90;;;18.90;61.20;21.00;94227.00;;;;10471809;28;45157;-61
2022/09/06 08:31:34;;;;;;;1.15;0.90;;;18.90;60.40;21.00;94237.00;;;;10471773;28;45534;-60
2022/09/06 08:36:55;;;;;;;1.45;1.00;;;18.90;60.40;21.00;94215.00;;;;10454489;28;45201;-60
2022/09/06 08:42:16;;;;;;;2.03;1.00;;;18.90;60.40;21.10;94215.00;;;;10437742;28;45189;-60
2022/09/06 08:47:38;;;;;;;2.05;0.90;;;18.90;60.40;21.10;94210.00;;;;10462091;28;45176;-61
2022/09/06 08:53:06;;;;;;;1.33;0.73;;;19.00;60.40;21.10;94220.00;;;;10441200;28;45235;-61
2022/09/06 09:30:47;;;;;;;3.55;1.08;;;18.10;65.90;20.80;94222.00;;;;10577225;27;1234123;-59
2022/09/06 09:36:12;;;;;;;2.08;1.10;;;18.30;65.70;20.90;94228.00;;;;10551828;27;45360;-59
2022/09/06 09:41:35;;;;;;;1.95;1.08;;;18.60;65.10;21.00;94229.00;;;;10562414;27;45228;-58
2022/09/06 09:46:57;;;;;;;4.68;1.20;;;18.80;64.30;21.00;94229.00;;;;10554372;27;45816;-59
2022/09/06 09:52:26;;;;;;;3.78;1.23;;;18.90;63.80;21.00;94215.00;;;;10561909;27;45483;-57
2022/09/06 09:57:49;;;;;;;4.70;1.40;;;18.90;63.40;21.10;94217.00;;;;10564428;27;45162;-59
2022/09/06 10:03:17;;;;;;;4.60;1.27;;;19.00;63.00;21.20;94214.00;;;;10559207;27;45834;-58
2022/09/06 10:08:42;;;;;;;1.48;1.08;;;19.00;62.50;21.10;94203.00;;;;10559856;27;45498;-59
2022/09/06 10:14:12;;;;;;;2.00;1.30;;;19.00;62.80;21.10;94193.00;;;;10556826;27;45211;-58
2022/09/06 10:19:45;;;;;;;1.85;1.30;;;19.00;62.60;21.10;94194.00;;;;10567951;27;45149;-59
2022/09/06 10:25:31;;;;;;;2.58;1.20;;;19.10;62.60;21.20;94202.00;;;;10566592;27;45358;-58
2022/09/06 10:31:06;;;;;;;2.00;1.27;;;19.10;62.50;21.20;94180.00;;;;10572248;27;45208;-59
2022/09/06 10:36:34;;;;;;;2.15;1.15;;;19.10;62.10;21.20;94187.00;;;;10543494;27;45690;-60
2022/09/06 10:42:09;;;;;;;1.88;1.20;;;19.10;62.40;21.20;94192.00;;;;10530002;27;45234;-59
2022/09/06 10:47:49;;;;;;;1.73;1.00;;;19.10;62.30;21.20;94197.00;;;;10515797;27;45823;-59
2022/09/06 10:53:24;;;;;;;2.25;1.27;;;19.10;62.20;21.20;94186.00;;;;10515677;27;45874;-60
2022/09/06 10:58:52;;;;;;;1.85;1.10;;;19.10;62.20;21.20;94176.00;;;;10515321;27;45216;-60
2022/09/06 11:04:22;;;;;;;2.20;1.20;;;19.10;62.20;21.20;94180.00;;;;10520349;27;45208;-60
2022/09/06 11:09:49;;;;;;;2.78;1.20;;;19.10;62.10;21.20;94169.00;;;;10528202;27;45228;-60
2022/09/06 11:15:14;;;;;;;2.92;1.10;;;19.10;62.10;21.20;94170.00;;;;10521348;27;45586;-58
2022/09/06 11:20:40;;;;;;;2.28;1.45;;;19.00;62.00;21.20;94182.00;;;;10515337;27;45567;-59
2022/09/06 11:26:33;;;;;;;4.03;0.97;;;19.10;62.10;21.20;94179.00;;;;10515521;27;45805;-61
2022/09/06 11:31:56;;;;;;;3.72;1.48;;;19.00;62.10;21.20;94189.00;;;;10532311;27;45739;-59
2022/09/06 11:37:27;;;;;;;1.55;0.95;;;19.00;61.90;21.20;94211.00;;;;10522872;27;45258;-59
2022/09/06 11:43:17;;;;;;;1.38;1.00;;;19.10;62.00;21.20;94212.00;;;;10514482;27;45726;-60
2022/09/06 11:49:01;;;;;;;2.38;1.20;;;19.10;61.80;21.20;94224.00;;;;10511541;27;45240;-60
2022/09/06 11:54:28;;;;;;;2.75;1.20;;;19.00;61.80;21.10;94227.00;;;;10514042;27;45219;-58
2022/09/06 11:59:59;;;;;;;2.25;0.93;;;19.00;61.60;21.20;94231.00;;;;10514298;27;45451;-58
2022/09/06 12:05:24;;;;;;;1.63;1.05;;;19.00;61.60;21.10;94249.00;;;;10513176;27;45235;-59
2022/09/06 12:10:51;;;;;;;1.20;0.90;;;19.00;61.60;21.10;94257.00;;;;10513729;27;45119;-59
2022/09/06 12:16:16;;;;;;;2.38;1.13;;;19.00;61.50;21.10;94262.00;;;;10512941;28;45210;-59
2022/09/06 12:21:50;;;;;;;1.92;1.20;;;19.00;61.70;21.10;94261.00;;;;10514298;28;45555;-58
2022/09/06 12:27:15;;;;;;;1.10;0.90;;;19.00;61.50;21.10;94231.00;;;;10519537;27;45953;-59
2022/09/06 12:32:41;;;;;;;1.08;0.77;;;19.00;61.60;21.10;94239.00;;;;10528560;27;46154;-59
2022/09/06 12:38:05;;;;;;;2.65;1.00;;;19.00;61.50;21.20;94213.00;;;;10538022;27;45159;-59
2022/09/06 12:43:27;;;;;;;2.53;1.10;;;19.00;61.80;21.20;94199.00;;;;10518822;27;45285;-59
2022/09/06 12:49:06;;;;;;;2.80;1.17;;;19.00;61.40;21.10;94199.00;;;;10540224;27;45217;-60
2022/09/06 12:54:27;;;;;;;1.77;0.90;;;19.00;61.40;21.10;94165.00;;;;10553558;27;45135;-59
2022/09/06 12:59:52;;;;;;;1.77;1.00;;;19.00;61.40;21.10;94159.00;;;;10553540;27;45286;-58
2022/09/06 13:05:14;;;;;;;2.72;1.00;;;19.00;61.40;21.10;94149.00;;;;10553722;27;45660;-62
2022/09/06 13:10:38;;;;;;;2.80;1.10;;;19.00;61.40;21.10;94143.00;;;;10554439;27;45187;-60
2022/09/06 13:15:59;;;;;;;1.48;0.90;;;19.00;61.40;21.10;94122.00;;;;10553960;27;45509;-58
2022/09/06 13:21:32;;;;;;;1.30;0.98;;;19.00;61.40;21.10;94087.00;;;;10553843;27;45198;-59
2022/09/06 13:26:53;;;;;;;1.75;1.00;;;19.00;61.40;21.10;94086.00;;;;10541492;27;45373;-58
2022/09/06 13:32:14;;;;;;;1.48;1.10;;;19.00;61.40;21.10;94103.00;;;;10528518;27;45551;-60
2022/09/06 13:37:39;;;;;;;1.63;1.00;;;19.00;61.40;21.10;94090.00;;;;10519894;27;45244;-58
2022/09/06 13:43:00;;;;;;;2.95;1.10;;;19.00;61.40;21.10;94082.00;;;;10511221;28;45285;-58
2022/09/06 13:48:21;;;;;;;1.25;0.90;;;19.00;61.40;21.10;94082.00;;;;10509931;28;45654;-58
2022/09/06 13:53:43;;;;;;;1.48;1.10;;;19.00;61.30;21.10;94086.00;;;;10541036;27;45193;-60
2022/09/06 13:59:04;;;;;;;0.75;0.70;;;19.00;61.30;21.10;94074.00;;;;10552803;27;45181;-59
2022/09/06 14:04:25;;;;;;;1.48;0.90;;;19.00;61.40;21.10;94078.00;;;;10552531;27;45179;-59
2022/09/06 14:09:49;;;;;;;2.25;1.02;;;19.00;61.40;21.10;94086.00;;;;10529886;27;45226;-59
2022/09/06 14:15:12;;;;;;;3.53;0.90;;;19.00;61.40;21.10;94086.00;;;;10517367;28;45328;-58
2022/09/06 14:20:32;;;;;;;1.52;0.93;;;19.00;61.40;21.10;94096.00;;;;10517549;27;45222;-58
2022/09/06 14:25:57;;;;;;;1.08;0.80;;;19.00;61.30;21.10;94088.00;;;;10517196;27;45275;-58
2022/09/06 14:31:20;;;;;;;2.55;0.80;;;19.00;61.40;21.10;94087.00;;;;10559544;27;45498;-61
2022/09/06 14:36:41;;;;;;;2.42;1.00;;;19.00;61.40;21.10;94109.00;;;;10534980;27;45180;-59
2022/09/06 14:42:03;;;;;;;1.52;0.80;;;19.00;61.40;21.10;94102.00;;;;10516925;27;45796;-58
2022/09/06 14:47:24;;;;;;;0.98;0.85;;;19.00;61.40;21.10;94098.00;;;;10516043;28;45769;-60
2022/09/06 14:52:45;;;;;;;2.38;0.98;;;19.00;61.30;21.10;94066.00;;;;10516143;28;45219;-59
2022/09/06 14:58:08;;;;;;;1.55;1.00;;;19.00;61.40;21.10;94054.00;;;;10515529;28;45683;-61
2022/09/06 15:03:28;;;;;;;1.52;0.90;;;19.00;61.30;21.10;94049.00;;;;10516295;27;45817;-59
2022/09/06 15:08:50;;;;;;;1.45;0.90;;;19.00;61.30;21.10;94053.00;;;;10543285;27;45165;-60
2022/09/06 15:14:16;;;;;;;2.03;0.93;;;19.00;61.30;21.10;93999.00;;;;10527892;27;45199;-59
2022/09/06 15:19:37;;;;;;;2.00;0.77;;;19.00;61.30;21.10;93974.00;;;;10533643;27;45715;-58
2022/09/06 15:24:58;;;;;;;1.73;1.00;;;19.00;61.30;21.10;94009.00;;;;10515318;27;45588;-59
2022/09/06 15:30:20;;;;;;;1.27;0.63;;;19.00;61.40;21.10;94001.00;;;;10550596;27;45318;-59
2022/09/06 15:35:41;;;;;;;1.80;0.80;;;19.00;61.40;21.10;94010.00;;;;10525497;27;45712;-58
2022/09/06 15:41:06;;;;;;;1.50;0.85;;;19.00;61.50;21.10;94011.00;;;;10513098;28;45618;-59
2022/09/06 15:46:45;;;;;;;1.10;0.88;;;19.00;61.40;21.10;94021.00;;;;10539584;27;46089;-59
2022/09/06 15:52:08;;;;;;;1.02;0.70;;;18.90;61.40;21.10;94049.00;;;;10539123;27;45559;-59
2022/09/06 15:57:29;;;;;;;2.53;0.70;;;19.00;61.50;21.10;94019.00;;;;10533943;27;45279;-59
2022/09/06 16:02:51;;;;;;;1.02;0.80;;;18.90;61.40;21.10;94035.00;;;;10533713;27;45881;-59
2022/09/06 16:08:12;;;;;;;0.70;0.70;;;19.00;61.40;21.10;94088.00;;;;10535754;27;45275;-59
2022/09/06 16:13:33;;;;;;;1.35;0.77;;;19.00;61.40;21.10;94099.00;;;;10522451;27;45153;-59
2022/09/06 16:18:57;;;;;;;1.15;0.60;;;18.90;61.40;21.10;94030.00;;;;10525739;27;45504;-59
2022/09/06 16:24:18;;;;;;;0.80;0.80;;;19.00;61.50;21.10;93968.00;;;;10542041;27;45774;-59
2022/09/06 16:29:38;;;;;;;1.25;0.65;;;19.00;61.40;21.10;93955.00;;;;10545327;27;45504;-58
2022/09/06 16:35:00;;;;;;;2.15;0.60;;;18.90;61.40;21.10;93944.00;;;;10545665;27;45268;-60
2022/09/06 16:40:21;;;;;;;1.33;0.90;;;19.00;61.40;21.10;93958.00;;;;10512839;27;45233;-59
2022/09/06 16:45:42;;;;;;;0.70;0.40;;;18.90;61.40;21.10;93950.00;;;;10536979;27;46222;-60
2022/09/06 16:51:12;;;;;;;1.65;0.55;;;19.00;61.50;21.00;93936.00;;;;10511734;28;45242;-59
2022/09/06 16:56:34;;;;;;;1.13;0.70;;;18.90;61.50;21.00;93939.00;;;;10512267;28;45475;-60
2022/09/06 17:01:55;;;;;;;0.50;0.45;;;18.90;61.50;21.10;93928.00;;;;10512838;28;45463;-60
2022/09/06 17:07:17;;;;;;;1.13;0.60;;;18.90;61.40;21.00;93927.00;;;;10511790;27;45217;-61
2022/09/06 17:12:38;;;;;;;1.23;0.60;;;19.00;61.50;21.10;93930.00;;;;10512019;28;45739;-58
2022/09/06 17:17:58;;;;;;;1.00;0.70;;;18.90;61.50;21.10;93933.00;;;;10511950;28;45245;-59
2022/09/06 17:23:20;;;;;;;1.25;0.65;;;18.90;61.40;21.10;93916.00;;;;10528897;27;45180;-59
2022/09/06 17:28:41;;;;;;;0.90;0.50;;;18.90;61.50;21.10;93914.00;;;;10535063;27;45200;-59
2022/09/06 17:34:02;;;;;;;1.77;0.60;;;19.00;61.50;21.10;93898.00;;;;10552429;27;45862;-61
2022/09/06 17:39:23;;;;;;;1.23;0.60;;;18.90;61.50;21.10;93907.00;;;;10510751;27;45532;-58
2022/09/06 17:44:44;;;;;;;1.23;0.70;;;19.00;61.50;21.10;93892.00;;;;10511271;27;45537;-58
2022/09/06 17:50:06;;;;;;;1.17;0.75;;;19.00;61.50;21.10;93910.00;;;;10516690;28;45181;-58
2022/09/06 17:55:28;;;;;;;3.25;0.57;;;18.90;61.50;21.10;93907.00;;;;10531558;27;45296;-59
2022/09/06 18:00:49;;;;;;;0.82;0.45;;;18.90;61.70;21.10;93924.00;;;;10526071;27;45831;-58
2022/09/06 18:06:13;;;;;;;1.27;0.85;;;18.90;62.40;21.10;93926.00;;;;10520661;27;45311;-60
2022/09/06 18:11:37;;;;;;;0.98;0.70;;;19.00;61.70;21.10;93922.00;;;;10517738;28;45127;-58
2022/09/06 18:16:58;;;;;;;0.77;0.50;;;19.00;61.80;21.10;93930.00;;;;10517270;27;45761;-58
2022/09/06 18:22:18;;;;;;;1.10;0.50;;;19.00;61.80;21.10;93925.00;;;;10528184;27;46181;-60
2022/09/06 18:27:40;;;;;;;1.52;0.60;;;18.90;61.70;21.10;93924.00;;;;10540527;27;45490;-59
2022/09/06 18:33:01;;;;;;;1.00;0.70;;;18.90;61.80;21.00;93919.00;;;;10559129;27;45754;-59
2022/09/06 18:38:21;;;;;;;0.77;0.57;;;18.90;61.90;21.00;93929.00;;;;10521358;27;45570;-60
2022/09/06 18:43:43;;;;;;;0.90;0.60;;;18.90;62.60;21.10;93947.00;;;;10517015;28;45495;-60
2022/09/06 18:49:06;;;;;;;0.82;0.40;;;18.90;61.80;21.10;93948.00;;;;10515368;27;45400;-61
2022/09/06 18:54:26;;;;;;;0.50;0.50;;;18.90;62.00;21.00;93931.00;;;;10516311;28;45446;-59
2022/09/06 18:59:48;;;;;;;0.35;0.35;;;18.90;61.90;21.00;93946.00;;;;10519244;27;45171;-58
2022/09/06 19:05:09;;;;;;;0.73;0.43;;;18.90;62.00;21.10;93927.00;;;;10525902;27;45671;-60
2022/09/06 19:10:30;;;;;;;0.40;0.40;;;18.90;62.00;21.00;93921.00;;;;10522048;27;45766;-60
2022/09/06 19:15:52;;;;;;;0.57;0.50;;;18.90;62.00;21.10;93944.00;;;;10510343;27;46016;-59
2022/09/06 19:21:15;;;;;;;0.68;0.32;;;18.90;61.90;21.00;93948.00;;;;10512400;27;45216;-59
2022/09/06 19:26:38;;;;;;;0.75;0.50;;;18.90;62.00;21.00;93964.00;;;;10520640;27;45145;-60
2022/09/06 19:32:00;;;;;;;0.63;0.40;;;18.90;62.10;21.00;93960.00;;;;10557589;27;45200;-60
2022/09/06 19:37:23;;;;;;;1.63;0.50;;;18.90;62.00;21.00;93965.00;;;;10527112;27;45393;-58
2022/09/06 19:42:43;;;;;;;0.93;0.35;;;18.90;62.00;21.10;93964.00;;;;10513299;27;45757;-61
2022/09/06 19:48:06;;;;;;;0.52;0.40;;;18.90;62.00;21.00;93954.00;;;;10512668;27;45806;-58
2022/09/06 19:53:26;;;;;;;0.68;0.40;;;18.90;61.90;21.00;93942.00;;;;10513990;27;45412;-60
2022/09/06 19:58:47;;;;;;;0.70;0.40;;;18.90;62.00;21.00;93941.00;;;;10513446;27;45155;-59
2022/09/06 20:04:11;;;;;;;1.10;0.50;;;18.90;62.10;21.00;93950.00;;;;10530903;27;45304;-60
2022/09/06 20:09:32;;;;;;;1.15;0.47;;;18.90;62.10;21.00;93960.00;;;;10511754;27;45226;-59
2022/09/06 20:14:52;;;;;;;0.47;0.40;;;18.90;62.10;21.00;93964.00;;;;10512701;27;45256;-60
2022/09/06 20:20:15;;;;;;;0.70;0.52;;;18.90;62.00;21.00;93950.00;;;;10512815;27;45189;-59
2022/09/06 20:25:36;;;;;;;0.82;0.50;;;18.90;62.10;21.00;93950.00;;;;10508169;27;45223;-58
2022/09/06 20:31:01;;;;;;;0.40;0.30;;;18.90;62.00;21.00;93936.00;;;;10510572;27;45132;-58
2022/09/06 20:36:24;;;;;;;0.90;0.43;;;18.90;62.00;21.00;93955.00;;;;10521102;27;45715;-59
2022/09/06 20:41:44;;;;;;;0.57;0.40;;;18.90;62.20;21.00;93939.00;;;;10512631;27;45178;-60
2022/09/06 20:47:05;;;;;;;0.90;0.50;;;18.90;62.10;21.00;93935.00;;;;10540506;27;45527;-58
2022/09/06 20:52:27;;;;;;;0.98;0.38;;;18.90;62.10;21.00;93945.00;;;;10553371;27;45193;-59
2022/09/06 20:57:48;;;;;;;0.88;0.15;;;18.90;62.20;21.00;93946.00;;;;10554211;27;45866;-59
2022/09/06 21:03:09;;;;;;;0.63;0.30;;;18.90;62.10;21.00;93947.00;;;;10536190;27;45148;-58
2022/09/06 21:08:31;;;;;;;1.35;0.30;;;18.90;62.20;21.00;93973.00;;;;10510971;27;45219;-60
2022/09/06 21:13:55;;;;;;;1.35;0.30;;;18.90;62.20;21.00;93986.00;;;;10512097;27;45475;-60
2022/09/06 21:19:16;;;;;;;1.08;0.47;;;18.90;62.40;21.00;93998.00;;;;10510724;27;45183;-58
2022/09/06 21:24:38;;;;;;;0.90;0.32;;;18.80;63.10;21.00;93997.00;;;;10542760;27;45769;-60
2022/09/06 21:29:59;;;;;;;1.33;0.30;;;18.90;62.30;21.00;94011.00;;;;10552992;27;45357;-59
2022/09/06 21:35:20;;;;;;;0.82;0.30;;;18.90;62.40;21.00;93993.00;;;;10523388;27;45780;-58
2022/09/06 21:40:41;;;;;;;0.20;0.20;;;18.90;63.10;21.00;94028.00;;;;10552962;27;45083;-59
2022/09/06 21:46:03;;;;;;;0.55;0.40;;;18.90;62.20;21.00;94010.00;;;;10553012;27;45295;-59
2022/09/06 21:51:26;;;;;;;1.23;0.40;;;18.90;62.10;21.00;94004.00;;;;10551821;27;45774;-60
2022/09/06 21:56:48;;;;;;;0.60;0.40;;;18.90;62.20;21.00;93979.00;;;;10552082;27;45797;-59
2022/09/06 22:02:09;;;;;;;0.30;0.28;;;18.90;62.00;21.00;93976.00;;;;10544703;27;45198;-58
2022/09/06 22:07:29;;;;;;;0.40;0.38;;;18.90;62.20;21.00;93967.00;;;;10509919;27;45672;-60
2022/09/06 22:12:52;;;;;;;0.75;0.30;;;18.90;62.30;21.00;93977.00;;;;10510025;27;45141;-59
2022/09/06 22:18:13;;;;;;;0.80;0.50;;;18.80;62.20;21.00;93961.00;;;;10509737;27;46216;-59
2022/09/06 22:23:34;;;;;;;0.82;0.30;;;18.90;62.30;21.00;93948.00;;;;10509340;27;45313;-59
2022/09/06 22:28:58;;;;;;;1.75;0.43;;;18.90;62.30;21.00;93950.00;;;;10534532;27;45288;-59
2022/09/06 22:34:19;;;;;;;1.80;0.40;;;18.90;62.30;21.00;93932.00;;;;10553068;27;45850;-59
2022/09/06 22:39:40;;;;;;;0.80;0.40;;;18.90;62.20;21.00;93932.00;;;;10516159;27;45487;-59
2022/09/06 22:45:03;;;;;;;0.50;0.30;;;18.80;62.30;21.00;93939.00;;;;10516128;27;45227;-58
2022/09/06 22:50:23;;;;;;;0.38;0.30;;;18.90;62.30;21.00;93932.00;;;;10544547;27;45683;-60
2022/09/06 22:55:47;;;;;;;0.30;0.30;;;18.90;62.50;21.00;93931.00;;;;10557736;27;45226;-59
2022/09/06 23:01:11;;;;;;;0.93;0.30;;;18.90;62.40;21.00;93930.00;;;;10552017;27;45233;-58
2022/09/06 23:06:32;;;;;;;0.55;0.40;;;18.90;62.50;21.00;93941.00;;;;10519045;27;45877;-59
2022/09/06 23:11:53;;;;;;;0.65;0.30;;;18.90;62.50;21.00;93924.00;;;;10515461;27;45144;-60
2022/09/06 23:17:15;;;;;;;0.55;0.30;;;18.90;62.60;21.00;93926.00;;;;10515703;27;45313;-60
2022/09/06 23:22:36;;;;;;;0.60;0.30;;;18.90;62.60;21.00;93919.00;;;;10515209;27;45176;-60
2022/09/06 23:27:59;;;;;;;0.65;0.40;;;18.90;62.50;21.00;93915.00;;;;10545408;27;45274;-59
2022/09/06 23:33:20;;;;;;;0.47;0.30;;;18.80;62.40;21.00;93911.00;;;;10557245;27;45166;-61
2022/09/06 23:38:42;;;;;;;2.08;0.40;;;18.90;62.40;21.00;93923.00;;;;10516369;27;45844;-58
2022/09/06 23:44:03;;;;;;;0.57;0.40;;;18.80;62.40;21.00;93920.00;;;;10545595;27;45223;-59
2022/09/06 23:49:25;;;;;;;0.82;0.40;;;18.80;62.50;21.00;93916.00;;;;10555884;27;45512;-59
2022/09/06 23:54:45;;;;;;;0.60;0.30;;;18.90;62.50;21.00;93920.00;;;;10555958;27;45716;-59
